| time (UTC) | temp F | wind direction | speed MPH | gust MPH | rain 1hr in | rain 24hr in | rain mn in | humidity % | barometer mb |
| 20260502164046 | 65 | 360 | 13.0 | 22.0 | 0.00 | 0.00 | 0.00 | 39 | 1016.9 |
| 20260502163543 | 65 | 360 | 16.0 | 27.0 | 0.00 | 0.00 | 0.00 | 39 | 1016.9 |
| 20260502163048 | 65 | 360 | 16.0 | 27.0 | 0.00 | 0.00 | 0.00 | 39 | 1016.9 |
| 20260502162545 | 65 | 360 | 16.0 | 24.0 | 0.00 | 0.00 | 0.00 | 39 | 1016.8 |
| 20260502162041 | 64 | 360 | 13.0 | 20.0 | 0.00 | 0.00 | 0.00 | 39 | 1016.8 |
| 20260502161557 | 64 | 360 | 15.0 | 21.0 | 0.00 | 0.00 | 0.00 | 39 | 1016.7 |
| 20260502161041 | 64 | 360 | 16.0 | 22.0 | 0.00 | 0.00 | 0.00 | 40 | 1016.7 |
| 20260502160538 | 63 | 360 | 15.0 | 22.0 | 0.00 | 0.00 | 0.00 | 40 | 1016.7 |
| 20260502152030 | 60 | 360 | 8.0 | 12.0 | 0.00 | 0.00 | 0.00 | 47 | 1016.5 |
| 20260502151530 | 60 | 360 | 8.0 | 13.0 | 0.00 | 0.00 | 0.00 | 46 | 1016.5 |
| 20260502151029 | 59 | 360 | 10.0 | 13.0 | 0.00 | 0.00 | 0.00 | 47 | 1016.5 |
| 20260502150528 | 60 | 360 | 8.0 | 14.0 | 0.00 | 0.00 | 0.00 | 46 | 1016.4 |
| 20260502130519 | 49 | 360 | 0.0 | 2.0 | 0.00 | 0.00 | 0.00 | 61 | 1016.2 |
| 20260502123516 | 45 | 360 | 4.0 | 5.0 | 0.00 | 0.00 | 0.00 | 63 | 1016.1 |
| 20260502123018 | 45 | 127 | 2.0 | 6.0 | 0.00 | 0.00 | 0.00 | 61 | 1015.9 |
| 20260502122512 | 46 | 360 | 1.0 | 6.0 | 0.00 | 0.00 | 0.00 | 59 | 1016.0 |
| 20260502122022 | 47 | 360 | 0.0 | 0.0 | 0.00 | 0.00 | 0.00 | 58 | 1016.0 |
| 20260502121512 | 47 | 360 | 0.0 | 0.0 | 0.00 | 0.00 | 0.00 | 58 | 1015.9 |
| 20260502121011 | 47 | 360 | 0.0 | 0.0 | 0.00 | 0.00 | 0.00 | 57 | 1015.8 |
| 20260502120514 | 47 | 360 | 0.0 | 2.0 | 0.00 | 0.00 | 0.00 | 57 | 1015.8 |
| 20260502115518 | 47 | 360 | 2.0 | 4.0 | 0.00 | 0.00 | 0.00 | 57 | 1015.7 |
| 20260502115018 | 47 | 360 | 2.0 | 4.0 | 0.00 | 0.00 | 0.00 | 57 | 1015.6 |
| 20260502114513 | 47 | 360 | 0.0 | 1.0 | 0.00 | 0.00 | 0.00 | 56 | 1015.5 |
| 20260502114010 | 48 | 360 | 0.0 | 3.0 | 0.00 | 0.00 | 0.00 | 56 | 1015.5 |
| 20260502113511 | 48 | 360 | 1.0 | 3.0 | 0.00 | 0.00 | 0.00 | 56 | 1015.5 |
| 20260502113010 | 48 | 360 | 0.0 | 3.0 | 0.00 | 0.00 | 0.00 | 56 | 1015.5 |
| 20260502112510 | 48 | 360 | 1.0 | 3.0 | 0.00 | 0.00 | 0.00 | 56 | 1015.5 |
| 20260502112012 | 48 | 360 | 1.0 | 3.0 | 0.00 | 0.00 | 0.00 | 56 | 1015.5 |
| 20260502111509 | 47 | 360 | 0.0 | 4.0 | 0.00 | 0.00 | 0.00 | 57 | 1015.5 |
| 20260502111009 | 47 | 360 | 2.0 | 4.0 | 0.00 | 0.00 | 0.00 | 57 | 1015.6 |
| 20260502110509 | 47 | 360 | 2.0 | 4.0 | 0.00 | 0.00 | 0.00 | 57 | 1015.5 |
| 20260502105509 | 47 | 360 | 4.0 | 6.0 | 0.00 | 0.00 | 0.00 | 57 | 1015.6 |
| 20260502105008 | 47 | 360 | 3.0 | 6.0 | 0.00 | 0.00 | 0.00 | 57 | 1016.0 |
| 20260502104508 | 47 | 360 | 1.0 | 4.0 | 0.00 | 0.00 | 0.00 | 57 | 1016.0 |
| 20260502104009 | 47 | 360 | 2.0 | 4.0 | 0.00 | 0.00 | 0.00 | 57 | 1016.0 |
| 20260502103510 | 47 | 360 | 0.0 | 6.0 | 0.00 | 0.00 | 0.00 | 56 | 1016.1 |
| 20260502103011 | 47 | 360 | 2.0 | 8.0 | 0.00 | 0.00 | 0.00 | 56 | 1016.0 |
| 20260502102507 | 47 | 360 | 4.0 | 13.0 | 0.00 | 0.00 | 0.00 | 56 | 1015.8 |
| 20260502102012 | 47 | 360 | 6.0 | 13.0 | 0.00 | 0.00 | 0.00 | 56 | 1015.9 |
| 20260502101504 | 47 | 360 | 4.0 | 17.0 | 0.00 | 0.00 | 0.00 | 55 | 1015.7 |
| 20260502101004 | 48 | 360 | 12.0 | 18.0 | 0.00 | 0.00 | 0.00 | 54 | 1015.8 |
| 20260502100502 | 50 | 360 | 8.0 | 10.0 | 0.00 | 0.00 | 0.00 | 49 | 1015.7 |
| 20260502091057 | 54 | 360 | 12.0 | 20.0 | 0.00 | 0.00 | 0.00 | 42 | 1015.3 |
| 20260502090556 | 54 | 360 | 11.0 | 17.0 | 0.00 | 0.00 | 0.00 | 42 | 1015.3 |
| 20260502071043 | 52 | 360 | 10.0 | 14.0 | 0.00 | 0.00 | 0.00 | 44 | 1016.3 |
| 20260502070544 | 51 | 360 | 10.0 | 14.0 | 0.00 | 0.00 | 0.00 | 45 | 1016.4 |
| 20260502065542 | 50 | 360 | 8.0 | 12.0 | 0.00 | 0.00 | 0.00 | 46 | 1016.3 |
| 20260502065042 | 50 | 360 | 9.0 | 14.0 | 0.00 | 0.00 | 0.00 | 46 | 1016.3 |
| 20260502064544 | 50 | 360 | 10.0 | 13.0 | 0.00 | 0.00 | 0.00 | 46 | 1016.4 |
| 20260502064042 | 50 | 360 | 10.0 | 15.0 | 0.00 | 0.00 | 0.00 | 47 | 1016.4 |
| 20260502063541 | 49 | 360 | 9.0 | 15.0 | 0.00 | 0.00 | 0.00 | 48 | 1016.5 |
| 20260502063053 | 48 | 360 | 9.0 | 13.0 | 0.00 | 0.00 | 0.00 | 49 | 1016.5 |
| 20260502062541 | 49 | 360 | 9.0 | 11.0 | 0.00 | 0.00 | 0.00 | 48 | 1016.7 |
| 20260502062043 | 49 | 360 | 9.0 | 12.0 | 0.00 | 0.00 | 0.00 | 48 | 1016.7 |
| 20260502061539 | 49 | 360 | 10.0 | 13.0 | 0.00 | 0.00 | 0.00 | 48 | 1016.7 |
| 20260502061038 | 49 | 360 | 10.0 | 13.0 | 0.00 | 0.00 | 0.00 | 47 | 1016.8 |
| 20260502060541 | 50 | 360 | 9.0 | 13.0 | 0.00 | 0.00 | 0.00 | 46 | 1016.8 |
| 20260502055540 | 50 | 360 | 10.0 | 14.0 | 0.00 | 0.00 | 0.00 | 45 | 1016.9 |
| 20260502055038 | 49 | 360 | 10.0 | 13.0 | 0.00 | 0.00 | 0.00 | 47 | 1016.9 |
| 20260502054538 | 48 | 360 | 9.0 | 12.0 | 0.00 | 0.00 | 0.00 | 49 | 1017.0 |
| 20260502054036 | 48 | 360 | 9.0 | 12.0 | 0.00 | 0.00 | 0.00 | 50 | 1017.0 |
| 20260502053536 | 48 | 360 | 9.0 | 12.0 | 0.00 | 0.00 | 0.00 | 50 | 1017.1 |
| 20260502053040 | 48 | 360 | 9.0 | 13.0 | 0.00 | 0.00 | 0.00 | 50 | 1017.1 |
| 20260502052535 | 48 | 360 | 9.0 | 13.0 | 0.00 | 0.00 | 0.00 | 50 | 1017.2 |
| 20260502052035 | 49 | 360 | 10.0 | 13.0 | 0.00 | 0.00 | 0.00 | 49 | 1017.3 |
| 20260502051536 | 49 | 360 | 10.0 | 13.0 | 0.00 | 0.00 | 0.00 | 48 | 1017.2 |
| 20260502051035 | 49 | 360 | 9.0 | 13.0 | 0.00 | 0.00 | 0.00 | 48 | 1017.3 |
| 20260502050534 | 48 | 360 | 10.0 | 13.0 | 0.00 | 0.00 | 0.00 | 49 | 1017.4 |
| 20260502045534 | 47 | 360 | 9.0 | 12.0 | 0.00 | 0.00 | 0.00 | 51 | 1017.5 |
| 20260502045034 | 47 | 360 | 9.0 | 12.0 | 0.00 | 0.00 | 0.00 | 52 | 1017.6 |
| 20260502044533 | 48 | 360 | 8.0 | 12.0 | 0.00 | 0.00 | 0.00 | 51 | 1017.7 |
| 20260502044036 | 48 | 360 | 9.0 | 12.0 | 0.00 | 0.00 | 0.00 | 50 | 1017.7 |
| 20260502043534 | 48 | 360 | 8.0 | 12.0 | 0.00 | 0.00 | 0.00 | 51 | 1017.8 |
| 20260502043032 | 47 | 360 | 8.0 | 11.0 | 0.00 | 0.00 | 0.00 | 51 | 1017.8 |
| 20260502042531 | 47 | 360 | 9.0 | 11.0 | 0.00 | 0.00 | 0.00 | 51 | 1017.9 |
| 20260502042035 | 47 | 360 | 8.0 | 11.0 | 0.00 | 0.00 | 0.00 | 51 | 1018.1 |
| 20260502041531 | 47 | 360 | 7.0 | 10.0 | 0.00 | 0.00 | 0.00 | 51 | 1018.1 |
| 20260502041030 | 48 | 360 | 8.0 | 11.0 | 0.00 | 0.00 | 0.00 | 50 | 1018.0 |
| 20260502040529 | 47 | 360 | 8.0 | 11.0 | 0.00 | 0.00 | 0.00 | 50 | 1018.1 |
| 20260502035529 | 46 | 360 | 8.0 | 10.0 | 0.00 | 0.00 | 0.00 | 52 | 1018.3 |
| 20260502035029 | 46 | 360 | 8.0 | 10.0 | 0.00 | 0.00 | 0.00 | 53 | 1018.3 |
| 20260502034529 | 46 | 360 | 7.0 | 10.0 | 0.00 | 0.00 | 0.00 | 53 | 1018.2 |
| 20260502034029 | 46 | 360 | 8.0 | 10.0 | 0.00 | 0.00 | 0.00 | 53 | 1018.4 |
| 20260502033530 | 46 | 360 | 6.0 | 9.0 | 0.00 | 0.00 | 0.00 | 53 | 1018.5 |
| 20260502033034 | 46 | 360 | 6.0 | 9.0 | 0.00 | 0.00 | 0.00 | 53 | 1018.5 |
| 20260502032529 | 46 | 360 | 7.0 | 9.0 | 0.00 | 0.00 | 0.00 | 52 | 1018.4 |
| 20260502032027 | 47 | 360 | 5.0 | 8.0 | 0.00 | 0.00 | 0.00 | 51 | 1018.5 |
| 20260502031527 | 48 | 360 | 5.0 | 8.0 | 0.00 | 0.00 | 0.00 | 50 | 1018.6 |
| 20260502031028 | 48 | 360 | 5.0 | 9.0 | 0.00 | 0.00 | 0.00 | 49 | 1018.5 |
| 20260502030528 | 48 | 360 | 6.0 | 9.0 | 0.00 | 0.00 | 0.00 | 49 | 1018.4 |
| 20260502025526 | 46 | 360 | 7.0 | 10.0 | 0.00 | 0.00 | 0.00 | 51 | 1018.4 |
| 20260502025029 | 47 | 360 | 5.0 | 8.0 | 0.00 | 0.00 | 0.00 | 50 | 1018.5 |
| 20260502024527 | 47 | 360 | 6.0 | 8.0 | 0.00 | 0.00 | 0.00 | 49 | 1018.5 |
| 20260502024026 | 48 | 360 | 6.0 | 9.0 | 0.00 | 0.00 | 0.00 | 48 | 1018.4 |
| 20260502023526 | 49 | 360 | 8.0 | 9.0 | 0.00 | 0.00 | 0.00 | 45 | 1018.6 |
| 20260502023025 | 51 | 360 | 6.0 | 8.0 | 0.00 | 0.00 | 0.00 | 44 | 1018.6 |
| 20260502022524 | 51 | 360 | 5.0 | 6.0 | 0.00 | 0.00 | 0.00 | 43 | 1018.7 |
| 20260502022027 | 52 | 360 | 5.0 | 8.0 | 0.00 | 0.00 | 0.00 | 42 | 1018.6 |
| 20260502021524 | 52 | 360 | 5.0 | 8.0 | 0.00 | 0.00 | 0.00 | 42 | 1018.6 |
| 20260502021025 | 53 | 360 | 5.0 | 8.0 | 0.00 | 0.00 | 0.00 | 40 | 1018.7 |
| 20260502020524 | 56 | 360 | 4.0 | 5.0 | 0.00 | 0.00 | 0.00 | 37 | 1018.7 |
| 20260502020124 | 60 | 360 | 2.0 | 5.0 | 0.00 | 0.00 | 0.00 | 32 | 1018.8 |
| 20260502015524 | 60 | 360 | 3.0 | 5.0 | 0.00 | 0.00 | 0.00 | 31 | 1018.8 |
| 20260502015024 | 61 | 360 | 3.0 | 5.0 | 0.00 | 0.00 | 0.00 | 30 | 1018.8 |
| 20260502014524 | 62 | 360 | 3.0 | 6.0 | 0.00 | 0.00 | 0.00 | 29 | 1018.8 |
| 20260502014023 | 62 | 360 | 3.0 | 6.0 | 0.00 | 0.00 | 0.00 | 29 | 1018.8 |
| 20260502013523 | 63 | 360 | 4.0 | 9.0 | 0.00 | 0.00 | 0.00 | 28 | 1018.8 |
| 20260502013023 | 63 | 360 | 5.0 | 10.0 | 0.00 | 0.00 | 0.00 | 28 | 1018.9 |
| 20260502012523 | 64 | 360 | 5.0 | 10.0 | 0.00 | 0.00 | 0.00 | 27 | 1018.9 |
| 20260502012026 | 64 | 360 | 5.0 | 10.0 | 0.00 | 0.00 | 0.00 | 26 | 1018.9 |
| 20260502011522 | 65 | 360 | 6.0 | 12.0 | 0.00 | 0.00 | 0.00 | 26 | 1018.9 |
| 20260502011021 | 65 | 360 | 7.0 | 13.0 | 0.00 | 0.00 | 0.00 | 26 | 1019.0 |
| 20260502010522 | 65 | 360 | 7.0 | 12.0 | 0.00 | 0.00 | 0.00 | 25 | 1019.0 |
| 20260502005520 | 65 | 360 | 8.0 | 11.0 | 0.00 | 0.00 | 0.00 | 24 | 1019.1 |
| 20260502005020 | 66 | 360 | 7.0 | 12.0 | 0.00 | 0.00 | 0.00 | 25 | 1019.3 |
| 20260502004541 | 66 | 199 | 9.0 | 14.0 | 0.00 | 0.00 | 0.00 | 25 | 1019.2 |
| 20260502004020 | 66 | 360 | 9.0 | 14.0 | 0.00 | 0.00 | 0.00 | 24 | 1019.2 |
| 20260502003518 | 66 | 360 | 5.0 | 12.0 | 0.00 | 0.00 | 0.00 | 24 | 1019.1 |
| 20260502003019 | 66 | 360 | 5.0 | 11.0 | 0.00 | 0.00 | 0.00 | 23 | 1019.3 |
| 20260502002518 | 66 | 360 | 5.0 | 12.0 | 0.00 | 0.00 | 0.00 | 24 | 1019.3 |
| 20260502002018 | 66 | 360 | 8.0 | 12.0 | 0.00 | 0.00 | 0.00 | 24 | 1019.4 |
| 20260502001518 | 66 | 360 | 9.0 | 12.0 | 0.00 | 0.00 | 0.00 | 23 | 1019.5 |
| 20260502001016 | 66 | 360 | 5.0 | 14.0 | 0.00 | 0.00 | 0.00 | 23 | 1019.7 |
| 20260502000516 | 66 | 360 | 9.0 | 14.0 | 0.00 | 0.00 | 0.00 | 23 | 1019.7 |
| 20260501235516 | 67 | 226 | 7.0 | 15.0 | 0.00 | 0.00 | 0.00 | 22 | 1019.5 |
| 20260501235014 | 67 | 231 | 9.0 | 18.0 | 0.00 | 0.00 | 0.00 | 23 | 1019.5 |
| 20260501234514 | 67 | 360 | 6.0 | 12.0 | 0.00 | 0.00 | 0.00 | 23 | 1019.6 |
| 20260501234016 | 67 | 360 | 4.0 | 10.0 | 0.00 | 0.00 | 0.00 | 22 | 1019.8 |
| 20260501233511 | 67 | 251 | 6.0 | 11.0 | 0.00 | 0.00 | 0.00 | 21 | 1019.7 |
| 20260501233010 | 67 | 360 | 8.0 | 13.0 | 0.00 | 0.00 | 0.00 | 23 | 1019.7 |
| 20260501232511 | 67 | 360 | 8.0 | 13.0 | 0.00 | 0.00 | 0.00 | 22 | 1019.8 |
| 20260501232010 | 67 | 360 | 8.0 | 12.0 | 0.00 | 0.00 | 0.00 | 22 | 1019.8 |
| 20260501231514 | 67 | 360 | 5.0 | 12.0 | 0.00 | 0.00 | 0.00 | 22 | 1019.8 |
| 20260501231005 | 67 | 360 | 8.0 | 13.0 | 0.00 | 0.00 | 0.00 | 22 | 1019.7 |
| 20260501230506 | 67 | 360 | 7.0 | 16.0 | 0.00 | 0.00 | 0.00 | 22 | 1019.7 |
| 20260501230104 | 67 | 360 | 7.0 | 16.0 | 0.00 | 0.00 | 0.00 | 22 | 1019.7 |
| 20260501225502 | 67 | 360 | 6.0 | 11.0 | 0.00 | 0.00 | 0.00 | 22 | 1019.8 |
| 20260501225102 | 68 | 244 | 5.0 | 29.0 | 0.00 | 0.00 | 0.00 | 21 | 1019.9 |
| 20260501224559 | 67 | 360 | 10.0 | 29.0 | 0.00 | 0.00 | 0.00 | 24 | 1019.9 |
| 20260501224057 | 67 | 360 | 3.0 | 10.0 | 0.00 | 0.00 | 0.00 | 21 | 1020.0 |
| 20260501223556 | 67 | 360 | 7.0 | 12.0 | 0.00 | 0.00 | 0.00 | 21 | 1020.1 |
| 20260501223105 | 66 | 360 | 4.0 | 17.0 | 0.00 | 0.00 | 0.00 | 23 | 1020.3 |
| 20260501222557 | 66 | 360 | 11.0 | 17.0 | 0.00 | 0.00 | 0.00 | 23 | 1020.3 |
| 20260501222059 | 67 | 360 | 3.0 | 11.0 | 0.00 | 0.00 | 0.00 | 23 | 1020.3 |
| 20260501221559 | 66 | 360 | 6.0 | 11.0 | 0.00 | 0.00 | 0.00 | 23 | 1020.2 |
| 20260501221055 | 66 | 360 | 6.0 | 11.0 | 0.00 | 0.00 | 0.00 | 22 | 1020.3 |
| 20260501220554 | 66 | 360 | 6.0 | 14.0 | 0.00 | 0.00 | 0.00 | 22 | 1020.3 |
| 20260501215552 | 66 | 360 | 7.0 | 14.0 | 0.00 | 0.00 | 0.00 | 24 | 1020.5 |
| 20260501215053 | 66 | 360 | 3.0 | 10.0 | 0.00 | 0.00 | 0.00 | 24 | 1020.5 |
| 20260501214551 | 66 | 360 | 3.0 | 12.0 | 0.00 | 0.00 | 0.00 | 21 | 1020.5 |
| 20260501214050 | 66 | 360 | 9.0 | 16.0 | 0.00 | 0.00 | 0.00 | 22 | 1020.6 |
| 20260501213549 | 66 | 219 | 9.0 | 13.0 | 0.00 | 0.00 | 0.00 | 24 | 1020.6 |
| 20260501213051 | 66 | 360 | 8.0 | 13.0 | 0.00 | 0.00 | 0.00 | 23 | 1020.6 |
| 20260501212550 | 65 | 360 | 3.0 | 15.0 | 0.00 | 0.00 | 0.00 | 24 | 1020.7 |
| 20260501212047 | 65 | 360 | 5.0 | 15.0 | 0.00 | 0.00 | 0.00 | 23 | 1020.8 |
| 20260501211553 | 65 | 360 | 8.0 | 15.0 | 0.00 | 0.00 | 0.00 | 23 | 1020.9 |
| 20260501211046 | 65 | 360 | 9.0 | 16.0 | 0.00 | 0.00 | 0.00 | 23 | 1021.0 |
| 20260501210545 | 65 | 360 | 7.0 | 12.0 | 0.00 | 0.00 | 0.00 | 23 | 1021.0 |
| 20260501210049 | 65 | 360 | 4.0 | 14.0 | 0.00 | 0.00 | 0.00 | 24 | 1020.9 |
| 20260501205548 | 65 | 360 | 4.0 | 14.0 | 0.00 | 0.00 | 0.00 | 23 | 1020.9 |
| 20260501205044 | 65 | 360 | 7.0 | 15.0 | 0.00 | 0.00 | 0.00 | 25 | 1020.9 |
| 20260501204544 | 65 | 360 | 4.0 | 17.0 | 0.00 | 0.00 | 0.00 | 23 | 1021.0 |
| 20260501204044 | 65 | 360 | 9.0 | 17.0 | 0.00 | 0.00 | 0.00 | 24 | 1021.1 |
| 20260501203542 | 65 | 360 | 4.0 | 12.0 | 0.00 | 0.00 | 0.00 | 25 | 1021.1 |
| 20260501203041 | 64 | 360 | 5.0 | 13.0 | 0.00 | 0.00 | 0.00 | 24 | 1021.3 |
| 20260501202540 | 65 | 360 | 6.0 | 16.0 | 0.00 | 0.00 | 0.00 | 24 | 1021.3 |
| 20260501202039 | 64 | 360 | 8.0 | 16.0 | 0.00 | 0.00 | 0.00 | 25 | 1021.4 |
| 20260501201539 | 63 | 360 | 4.0 | 11.0 | 0.00 | 0.00 | 0.00 | 24 | 1021.4 |
| 20260501201042 | 63 | 207 | 4.0 | 9.0 | 0.00 | 0.00 | 0.00 | 23 | 1021.5 |
| 20260501200540 | 64 | 360 | 4.0 | 14.0 | 0.00 | 0.00 | 0.00 | 24 | 1021.5 |
| 20260501200137 | 64 | 360 | 10.0 | 17.0 | 0.00 | 0.00 | 0.00 | 26 | 1021.4 |
| 20260501195536 | 64 | 360 | 9.0 | 17.0 | 0.00 | 0.00 | 0.00 | 26 | 1021.5 |
| 20260501195035 | 64 | 360 | 12.0 | 17.0 | 0.00 | 0.00 | 0.00 | 25 | 1021.6 |
| 20260501194539 | 64 | 360 | 5.0 | 12.0 | 0.00 | 0.00 | 0.00 | 26 | 1021.6 |
| 20260501194034 | 64 | 360 | 7.0 | 15.0 | 0.00 | 0.00 | 0.00 | 25 | 1021.6 |
| 20260501193535 | 64 | 360 | 8.0 | 15.0 | 0.00 | 0.00 | 0.00 | 26 | 1021.7 |
| 20260501193033 | 63 | 360 | 6.0 | 13.0 | 0.00 | 0.00 | 0.00 | 26 | 1021.6 |
| 20260501192530 | 63 | 360 | 5.0 | 14.0 | 0.00 | 0.00 | 0.00 | 26 | 1021.7 |
| 20260501192030 | 63 | 360 | 10.0 | 14.0 | 0.00 | 0.00 | 0.00 | 25 | 1021.7 |
| 20260501191532 | 62 | 360 | 5.0 | 12.0 | 0.00 | 0.00 | 0.00 | 25 | 1021.7 |
| 20260501191030 | 62 | 360 | 6.0 | 15.0 | 0.00 | 0.00 | 0.00 | 26 | 1021.8 |
| 20260501190528 | 63 | 360 | 7.0 | 15.0 | 0.00 | 0.00 | 0.00 | 26 | 1021.8 |
| 20260501190028 | 62 | 360 | 7.0 | 16.0 | 0.00 | 0.00 | 0.00 | 26 | 1022.0 |
| 20260501185528 | 62 | 87 | 9.0 | 16.0 | 0.00 | 0.00 | 0.00 | 26 | 1022.0 |
| 20260501185028 | 62 | 360 | 7.0 | 14.0 | 0.00 | 0.00 | 0.00 | 28 | 1022.0 |
| 20260501184527 | 62 | 360 | 8.0 | 14.0 | 0.00 | 0.00 | 0.00 | 27 | 1022.0 |
| 20260501184027 | 62 | 360 | 9.0 | 12.0 | 0.00 | 0.00 | 0.00 | 27 | 1022.0 |
| 20260501183527 | 62 | 360 | 4.0 | 17.0 | 0.00 | 0.00 | 0.00 | 26 | 1022.1 |
| 20260501183027 | 62 | 360 | 9.0 | 17.0 | 0.00 | 0.00 | 0.00 | 26 | 1022.1 |
| 20260501182530 | 61 | 360 | 6.0 | 13.0 | 0.00 | 0.00 | 0.00 | 29 | 1022.1 |
| 20260501182030 | 62 | 360 | 8.0 | 15.0 | 0.00 | 0.00 | 0.00 | 27 | 1022.1 |
| 20260501181526 | 62 | 360 | 9.0 | 15.0 | 0.00 | 0.00 | 0.00 | 28 | 1022.2 |
| 20260501181024 | 61 | 360 | 8.0 | 12.0 | 0.00 | 0.00 | 0.00 | 27 | 1022.2 |
| 20260501180525 | 61 | 360 | 6.0 | 12.0 | 0.00 | 0.00 | 0.00 | 28 | 1022.3 |
| 20260501180124 | 60 | 360 | 9.0 | 16.0 | 0.00 | 0.00 | 0.00 | 28 | 1022.3 |
| 20260501175524 | 60 | 360 | 8.0 | 16.0 | 0.00 | 0.00 | 0.00 | 28 | 1022.4 |
| 20260501175022 | 61 | 360 | 10.0 | 16.0 | 0.00 | 0.00 | 0.00 | 28 | 1022.3 |
| 20260501174526 | 60 | 360 | 8.0 | 18.0 | 0.00 | 0.00 | 0.00 | 29 | 1022.2 |
| 20260501174025 | 61 | 360 | 9.0 | 18.0 | 0.00 | 0.00 | 0.00 | 28 | 1022.2 |
| 20260501173520 | 60 | 360 | 8.0 | 15.0 | 0.00 | 0.00 | 0.00 | 27 | 1022.4 |
| 20260501173021 | 60 | 360 | 7.0 | 12.0 | 0.00 | 0.00 | 0.00 | 28 | 1022.4 |
| 20260501172518 | 60 | 360 | 8.0 | 15.0 | 0.00 | 0.00 | 0.00 | 29 | 1022.5 |
| 20260501172018 | 60 | 360 | 7.0 | 15.0 | 0.00 | 0.00 | 0.00 | 29 | 1022.5 |